createdAt,value
2017-06-30T00:00:23.207Z,99008.89
2017-06-30T00:02:52.266Z,99004.97
2017-06-30T00:05:21.365Z,99005.36
2017-06-30T00:07:50.379Z,99014.60
2017-06-30T00:10:19.474Z,99004.19
2017-06-30T00:12:48.537Z,99005.17
2017-06-30T00:15:17.684Z,99009.70
2017-06-30T00:17:47.533Z,99009.74
2017-06-30T00:20:16.607Z,99012.69
2017-06-30T00:22:46.437Z,99001.67
2017-06-30T00:25:15.507Z,99003.45
2017-06-30T00:27:44.943Z,98999.73
2017-06-30T00:30:14.020Z,99001.28
2017-06-30T00:32:43.094Z,99001.88
2017-06-30T00:35:12.208Z,98997.76
2017-06-30T00:37:41.285Z,99002.46
2017-06-30T00:40:10.340Z,99002.87
2017-06-30T00:42:39.375Z,98998.91
2017-06-30T00:45:09.240Z,99000.08
2017-06-30T00:47:38.299Z,99009.33
2017-06-30T00:50:07.397Z,99005.62
2017-06-30T00:52:36.452Z,98997.56
2017-06-30T00:55:05.517Z,99004.66
2017-06-30T00:57:34.564Z,99004.08
2017-06-30T01:00:05.013Z,99006.05
2017-06-30T01:02:34.813Z,99006.44
2017-06-30T01:05:04.635Z,99007.45
2017-06-30T01:07:34.452Z,99007.27
2017-06-30T01:10:03.515Z,99006.09
2017-06-30T01:12:32.572Z,99003.55
2017-06-30T01:15:01.640Z,99009.68
2017-06-30T01:17:30.680Z,99006.36
2017-06-30T01:19:59.798Z,99009.73
2017-06-30T01:22:28.856Z,99009.52
2017-06-30T01:24:57.904Z,99011.69
2017-06-30T01:27:26.979Z,99013.66
2017-06-30T01:29:56.052Z,99021.34
2017-06-30T01:32:25.126Z,99019.00
2017-06-30T01:34:54.185Z,99019.80
2017-06-30T01:37:23.275Z,99018.61
2017-06-30T01:39:52.320Z,99020.78
2017-06-30T01:42:21.412Z,99025.51
2017-06-30T01:44:50.489Z,99022.36
2017-06-30T01:47:19.542Z,99017.83
2017-06-30T01:49:48.589Z,99017.64
2017-06-30T01:52:17.668Z,99017.47
2017-06-30T01:54:46.731Z,99013.53
2017-06-30T01:57:16.576Z,99024.70
2017-06-30T01:59:45.615Z,99020.00
2017-06-30T02:02:14.726Z,99016.23
2017-06-30T02:04:43.764Z,99016.22
2017-06-30T02:07:12.833Z,99013.88
2017-06-30T02:09:42.220Z,99021.55
2017-06-30T02:12:11.271Z,99019.97
2017-06-30T02:14:40.325Z,99013.70
2017-06-30T02:17:09.418Z,99019.36
2017-06-30T02:19:38.464Z,99024.86
2017-06-30T02:22:07.516Z,99015.82
2017-06-30T02:24:36.577Z,99018.19
2017-06-30T02:27:05.624Z,99024.47
2017-06-30T02:29:34.724Z,99020.16
2017-06-30T02:32:03.833Z,99027.20
2017-06-30T02:34:32.914Z,99031.93
2017-06-30T02:37:01.969Z,99032.33
2017-06-30T02:39:31.004Z,99033.16
2017-06-30T02:42:00.059Z,99045.14
2017-06-30T02:44:29.899Z,99044.16
2017-06-30T02:46:58.944Z,99046.91
2017-06-30T02:49:28.012Z,99044.35
2017-06-30T02:51:57.086Z,99050.66
2017-06-30T02:54:26.133Z,99047.91
2017-06-30T02:56:55.191Z,99047.92
2017-06-30T02:59:24.268Z,99049.88
2017-06-30T03:01:53.314Z,99049.27
2017-06-30T03:04:22.372Z,99050.06
2017-06-30T03:06:51.448Z,99050.23
2017-06-30T03:09:20.515Z,99059.88
2017-06-30T03:11:49.559Z,99054.96
2017-06-30T03:14:18.645Z,99063.00
2017-06-30T03:16:47.734Z,99060.06
2017-06-30T03:19:17.071Z,99064.58
2017-06-30T03:21:46.141Z,99061.45
2017-06-30T03:24:15.248Z,99067.31
2017-06-30T03:26:44.602Z,99068.31
2017-06-30T03:29:14.455Z,99066.16
2017-06-30T03:31:43.500Z,99070.06
2017-06-30T03:34:13.341Z,99067.91
2017-06-30T03:36:42.551Z,99068.50
2017-06-30T03:39:11.605Z,99066.34
2017-06-30T03:41:40.675Z,99073.79
2017-06-30T03:44:09.751Z,99072.25
2017-06-30T03:46:38.802Z,99082.44
2017-06-30T03:49:08.636Z,99085.76
2017-06-30T03:51:38.445Z,99083.59
2017-06-30T03:54:07.672Z,99091.64
2017-06-30T03:56:36.731Z,99090.45
2017-06-30T03:59:06.588Z,99087.91
2017-06-30T04:01:35.945Z,99091.05
2017-06-30T04:04:05.771Z,99093.01
2017-06-30T04:06:35.021Z,99093.02
2017-06-30T04:09:05.625Z,99101.05
2017-06-30T04:11:34.648Z,99097.90
2017-06-30T04:14:03.713Z,99091.03
2017-06-30T04:16:32.780Z,99098.30
2017-06-30T04:19:01.823Z,99091.81
2017-06-30T04:21:30.881Z,99087.71
2017-06-30T04:23:59.940Z,99087.11
2017-06-30T04:26:29.761Z,99096.13
2017-06-30T04:28:58.847Z,99092.42
2017-06-30T04:31:27.908Z,99091.63
2017-06-30T04:33:56.984Z,99093.98
2017-06-30T04:36:26.052Z,99096.34
2017-06-30T04:38:55.123Z,99100.86
2017-06-30T04:41:24.937Z,99100.08
2017-06-30T04:43:54.032Z,99111.26
2017-06-30T04:46:23.081Z,99109.09
2017-06-30T04:48:52.121Z,99110.45
2017-06-30T04:51:21.980Z,99121.06
2017-06-30T04:53:51.040Z,99121.62
2017-06-30T04:56:20.891Z,99123.79
2017-06-30T04:58:49.952Z,99125.76
2017-06-30T05:01:18.991Z,99134.20
2017-06-30T05:03:48.050Z,99134.20
2017-06-30T05:06:17.881Z,99141.07
2017-06-30T05:08:46.913Z,99138.72
2017-06-30T05:11:16.045Z,99138.51
2017-06-30T05:13:45.867Z,99139.11
2017-06-30T05:16:14.974Z,99139.70
2017-06-30T05:18:44.033Z,99145.39
2017-06-30T05:21:13.100Z,99138.89
2017-06-30T05:23:42.164Z,99147.94
2017-06-30T05:26:11.224Z,99145.39
2017-06-30T05:28:40.251Z,99145.19
2017-06-30T05:31:09.356Z,99150.88
2017-06-30T05:33:38.435Z,99159.11
2017-06-30T05:36:07.513Z,99158.53
2017-06-30T05:38:37.316Z,99160.69
2017-06-30T05:41:07.156Z,99156.95
2017-06-30T05:43:36.364Z,99164.03
2017-06-30T05:46:05.692Z,99168.33
2017-06-30T05:48:34.776Z,99173.62
2017-06-30T05:51:03.833Z,99169.13
2017-06-30T05:53:32.912Z,99179.72
2017-06-30T05:56:02.741Z,99184.45
2017-06-30T05:58:31.812Z,99191.70
2017-06-30T06:01:00.863Z,99187.74
2017-06-30T06:03:29.903Z,99194.63
2017-06-30T06:05:58.951Z,99198.13
2017-06-30T06:08:28.019Z,99199.28
2017-06-30T06:10:57.398Z,99203.75
2017-06-30T06:13:26.439Z,99205.52
2017-06-30T06:15:55.488Z,99205.89
2017-06-30T06:18:24.590Z,99211.16
2017-06-30T06:20:53.647Z,99209.00
2017-06-30T06:23:22.736Z,99213.31
2017-06-30T06:25:51.796Z,99212.75
2017-06-30T06:28:20.866Z,99212.55
2017-06-30T06:30:49.942Z,99215.91
2017-06-30T06:33:18.992Z,99216.49
2017-06-30T06:35:48.067Z,99222.59
2017-06-30T06:38:17.876Z,99223.94
2017-06-30T06:40:48.036Z,99228.67
2017-06-30T06:43:17.295Z,99224.55
2017-06-30T06:45:47.121Z,99223.19
2017-06-30T06:48:16.177Z,99223.99
2017-06-30T06:50:45.225Z,99224.80
2017-06-30T06:53:14.298Z,99224.03
2017-06-30T06:55:43.403Z,99228.93
2017-06-30T06:58:12.486Z,99227.53
2017-06-30T07:00:42.560Z,99232.45
2017-06-30T07:03:11.681Z,99236.98
2017-06-30T07:05:40.738Z,99232.08
2017-06-30T07:08:10.163Z,99233.07
2017-06-30T07:10:39.208Z,99228.80
2017-06-30T07:13:08.281Z,99232.33
2017-06-30T07:15:38.132Z,99224.88
2017-06-30T07:18:07.204Z,99224.67
2017-06-30T07:20:37.005Z,99227.80
2017-06-30T07:23:06.882Z,99224.47
2017-06-30T07:25:35.985Z,99227.36
2017-06-30T07:28:05.051Z,99222.64
2017-06-30T07:30:34.152Z,99219.87
2017-06-30T07:33:03.259Z,99218.88
2017-06-30T07:35:32.340Z,99223.97
2017-06-30T07:38:01.404Z,99229.44
2017-06-30T07:40:30.489Z,99225.13
2017-06-30T07:42:59.580Z,99229.85
2017-06-30T07:45:28.672Z,99226.73
2017-06-30T07:47:57.714Z,99225.94
2017-06-30T07:50:26.964Z,99224.34
2017-06-30T07:52:56.820Z,99229.24
2017-06-30T07:55:25.885Z,99226.50
2017-06-30T07:57:56.628Z,99227.45
2017-06-30T08:00:26.465Z,99232.77
2017-06-30T08:02:55.525Z,99228.82
2017-06-30T08:05:25.355Z,99236.09
2017-06-30T08:07:54.444Z,99232.55
2017-06-30T08:10:23.564Z,99232.77
2017-06-30T08:12:52.994Z,99242.41
2017-06-30T08:15:22.073Z,99238.84
2017-06-30T08:17:51.117Z,99244.91
2017-06-30T08:20:21.299Z,99248.20
2017-06-30T08:22:50.355Z,99249.39
2017-06-30T08:25:19.465Z,99254.08
2017-06-30T08:27:48.543Z,99253.87
2017-06-30T08:30:17.900Z,99252.67
2017-06-30T08:32:46.955Z,99254.98
2017-06-30T08:35:16.020Z,99257.30
2017-06-30T08:37:46.505Z,99256.84
2017-06-30T08:40:15.556Z,99260.39
2017-06-30T08:42:44.618Z,99251.36
2017-06-30T08:45:14.463Z,99256.08
2017-06-30T08:47:43.584Z,99254.54
2017-06-30T08:50:12.663Z,99245.89
2017-06-30T08:52:41.707Z,99259.27
2017-06-30T08:55:10.763Z,99251.38
2017-06-30T08:57:39.844Z,99256.52
2017-06-30T09:00:09.181Z,99260.03
2017-06-30T09:02:38.260Z,99257.99
2017-06-30T09:05:07.332Z,99253.41
2017-06-30T09:07:36.672Z,99252.84
2017-06-30T09:10:05.757Z,99262.67
2017-06-30T09:12:34.807Z,99261.67
2017-06-30T09:15:04.735Z,99264.03
2017-06-30T09:17:33.796Z,99259.31
2017-06-30T09:20:02.875Z,99260.47
2017-06-30T09:22:31.942Z,99261.81
2017-06-30T09:25:00.995Z,99257.06
2017-06-30T09:27:30.837Z,99252.41
2017-06-30T09:29:59.913Z,99248.74
2017-06-30T09:32:28.982Z,99248.08
2017-06-30T09:34:58.077Z,99252.52
2017-06-30T09:37:27.126Z,99251.79
2017-06-30T09:39:56.457Z,99254.35
2017-06-30T09:42:25.518Z,99258.06
2017-06-30T09:44:54.867Z,99251.30
2017-06-30T09:47:24.152Z,99246.34
2017-06-30T09:49:53.252Z,99249.47
2017-06-30T09:52:22.288Z,99239.52
2017-06-30T09:54:51.694Z,99236.20
2017-06-30T09:57:20.733Z,99242.50
2017-06-30T09:59:49.804Z,99251.31
2017-06-30T10:02:18.867Z,99245.61
2017-06-30T10:04:47.967Z,99248.27
2017-06-30T10:07:17.044Z,99257.90
2017-06-30T10:09:46.124Z,99248.27
2017-06-30T10:12:15.171Z,99256.95
2017-06-30T10:14:44.237Z,99252.20
2017-06-30T10:17:13.308Z,99248.48
2017-06-30T10:19:42.372Z,99245.75
2017-06-30T10:22:11.606Z,99251.38
2017-06-30T10:24:40.940Z,99248.95
2017-06-30T10:27:10.027Z,99254.53
2017-06-30T10:29:39.852Z,99251.58
2017-06-30T10:32:09.230Z,99256.40
2017-06-30T10:34:38.264Z,99257.13
2017-06-30T10:37:07.301Z,99259.86
2017-06-30T10:39:36.383Z,99269.37
2017-06-30T10:42:06.076Z,99255.66
2017-06-30T10:44:35.153Z,99255.48
2017-06-30T10:47:04.275Z,99258.16
2017-06-30T10:49:33.317Z,99266.59
2017-06-30T10:52:03.181Z,99265.68
2017-06-30T10:54:32.265Z,99272.30
2017-06-30T10:57:01.312Z,99276.31
2017-06-30T10:59:30.385Z,99272.80
2017-06-30T11:01:59.428Z,99280.86
2017-06-30T11:04:28.504Z,99282.18
2017-06-30T11:06:58.335Z,99279.52
2017-06-30T11:09:28.151Z,99276.58
2017-06-30T11:14:35.401Z,99275.57
2017-06-30T11:17:04.464Z,99278.66
2017-06-30T11:19:33.509Z,99277.01
2017-06-30T11:22:02.587Z,99278.76
2017-06-30T11:24:31.913Z,99280.47
2017-06-30T11:27:00.964Z,99279.88
2017-06-30T11:29:30.024Z,99286.11
2017-06-30T11:31:59.108Z,99286.41
2017-06-30T11:34:28.155Z,99291.46
2017-06-30T11:36:57.194Z,99290.80
2017-06-30T11:39:27.040Z,99286.72
2017-06-30T11:41:56.132Z,99291.78
2017-06-30T11:44:25.231Z,99287.88
2017-06-30T11:46:55.037Z,99284.44
2017-06-30T11:49:24.104Z,99279.06
2017-06-30T11:51:53.948Z,99280.61
2017-06-30T11:54:23.026Z,99275.62
2017-06-30T11:56:52.105Z,99275.86
2017-06-30T11:59:21.934Z,99282.41
2017-06-30T12:01:51.009Z,99283.89
2017-06-30T12:04:21.092Z,99280.17
2017-06-30T12:06:50.166Z,99280.95
2017-06-30T12:09:19.245Z,99276.48
2017-06-30T12:11:49.174Z,99288.58
2017-06-30T12:14:18.248Z,99283.69
2017-06-30T12:16:48.063Z,99279.27
2017-06-30T12:19:17.159Z,99291.46
2017-06-30T12:21:46.979Z,99292.84
2017-06-30T12:24:16.068Z,99287.59
2017-06-30T12:26:45.151Z,99295.92
2017-06-30T12:29:14.998Z,99299.16
2017-06-30T12:31:44.103Z,99298.43
2017-06-30T12:34:13.152Z,99295.13
2017-06-30T12:36:43.014Z,99298.20
2017-06-30T12:39:12.082Z,99295.66
2017-06-30T12:41:41.893Z,99298.48
2017-06-30T12:44:11.014Z,99301.00
2017-06-30T12:46:40.085Z,99303.17
2017-06-30T12:49:09.144Z,99304.05
2017-06-30T12:51:38.226Z,99295.17
2017-06-30T12:54:07.308Z,99297.80
2017-06-30T12:56:36.583Z,99299.25
2017-06-30T12:59:05.720Z,99300.86
2017-06-30T13:01:34.797Z,99298.02
2017-06-30T13:04:04.764Z,99288.79
2017-06-30T13:06:33.829Z,99291.69
2017-06-30T13:09:03.093Z,99294.98
2017-06-30T13:11:32.154Z,99286.48
2017-06-30T13:14:02.297Z,99283.89
2017-06-30T13:16:31.356Z,99286.88
2017-06-30T13:19:01.180Z,99287.84
2017-06-30T13:21:30.249Z,99285.28
2017-06-30T13:23:59.284Z,99283.28
2017-06-30T13:26:28.356Z,99279.64
2017-06-30T13:28:58.189Z,99286.17
2017-06-30T13:31:27.271Z,99285.72
2017-06-30T13:33:56.321Z,99279.22
2017-06-30T13:36:25.403Z,99282.91
2017-06-30T13:38:54.502Z,99279.27
2017-06-30T13:41:23.548Z,99281.56
2017-06-30T13:43:53.380Z,99280.82
2017-06-30T13:46:22.448Z,99278.32
2017-06-30T13:48:52.296Z,99280.73
2017-06-30T13:51:21.582Z,99279.48
2017-06-30T13:53:50.715Z,99288.48
2017-06-30T13:56:19.813Z,99284.81
2017-06-30T13:58:48.932Z,99286.97
2017-06-30T14:01:18.112Z,99290.38
2017-06-30T14:03:47.188Z,99280.73
2017-06-30T14:06:16.245Z,99285.84
2017-06-30T14:08:46.084Z,99286.45
2017-06-30T14:11:15.128Z,99295.13
2017-06-30T14:13:44.216Z,99289.41
2017-06-30T14:16:13.256Z,99297.44
2017-06-30T14:18:42.356Z,99303.27
2017-06-30T14:21:11.886Z,99305.93
2017-06-30T14:23:40.942Z,99305.65
2017-06-30T14:26:10.044Z,99316.81
2017-06-30T14:28:39.104Z,99312.23
2017-06-30T14:31:08.169Z,99316.41
2017-06-30T14:33:37.258Z,99324.38
2017-06-30T14:36:06.306Z,99320.33
2017-06-30T14:38:36.124Z,99323.34
2017-06-30T14:41:05.293Z,99321.36
2017-06-30T14:43:34.354Z,99318.45
2017-06-30T14:46:03.445Z,99319.34
2017-06-30T14:48:32.508Z,99316.80
2017-06-30T14:51:01.551Z,99315.28
2017-06-30T14:53:30.597Z,99321.77
2017-06-30T14:56:00.417Z,99323.61
2017-06-30T14:58:29.512Z,99323.46
2017-06-30T15:00:58.546Z,99330.44
2017-06-30T15:03:27.607Z,99331.08
2017-06-30T15:05:56.675Z,99330.26
2017-06-30T15:08:26.515Z,99338.70
2017-06-30T15:10:56.325Z,99335.86
2017-06-30T15:13:25.386Z,99331.48
2017-06-30T15:15:54.456Z,99329.42
2017-06-30T15:18:23.507Z,99331.20
2017-06-30T15:20:52.591Z,99334.39
2017-06-30T15:23:22.433Z,99331.98
2017-06-30T15:25:51.488Z,99331.23
2017-06-30T15:28:21.359Z,99329.50
2017-06-30T15:30:50.432Z,99341.81
2017-06-30T15:33:19.498Z,99335.36
2017-06-30T15:35:49.328Z,99326.33
2017-06-30T15:38:18.408Z,99334.80
2017-06-30T15:40:48.254Z,99329.44
2017-06-30T15:43:17.345Z,99322.20
2017-06-30T15:45:46.404Z,99323.20
2017-06-30T15:48:15.461Z,99317.50
2017-06-30T15:50:45.002Z,99312.14
2017-06-30T15:53:14.047Z,99317.46
2017-06-30T15:55:43.142Z,99315.55
2017-06-30T15:58:12.231Z,99310.52
2017-06-30T16:00:41.329Z,99314.69
2017-06-30T16:03:10.372Z,99312.47
2017-06-30T16:05:39.417Z,99313.64
2017-06-30T16:08:08.515Z,99315.77
2017-06-30T16:10:37.576Z,99308.51
2017-06-30T16:13:07.676Z,99306.59
2017-06-30T16:15:36.719Z,99300.84
2017-06-30T16:18:05.825Z,99301.36
2017-06-30T16:20:34.888Z,99301.63
2017-06-30T16:23:03.974Z,99297.82
2017-06-30T16:25:33.061Z,99299.80
2017-06-30T16:28:02.131Z,99290.38
2017-06-30T16:30:31.183Z,99292.37
2017-06-30T16:33:01.000Z,99283.67
2017-06-30T16:35:30.056Z,99282.40
2017-06-30T16:37:59.124Z,99283.44
2017-06-30T16:40:28.162Z,99276.53
2017-06-30T16:42:58.071Z,99274.58
2017-06-30T16:45:27.140Z,99289.28
2017-06-30T16:47:56.230Z,99284.57
2017-06-30T16:50:25.291Z,99277.83
2017-06-30T16:52:54.368Z,99273.84
2017-06-30T16:55:23.731Z,99288.17
2017-06-30T16:57:52.820Z,99284.75
2017-06-30T17:00:21.937Z,99283.67
2017-06-30T17:02:51.017Z,99284.10
2017-06-30T17:05:20.101Z,99284.28
2017-06-30T17:07:49.168Z,99291.94
2017-06-30T17:10:18.278Z,99288.12
2017-06-30T17:12:47.300Z,99292.07
2017-06-30T17:15:17.156Z,99294.09
2017-06-30T17:17:46.236Z,99297.43
2017-06-30T17:20:16.064Z,99302.66
2017-06-30T17:22:45.152Z,99303.49
2017-06-30T17:25:14.211Z,99296.70
2017-06-30T17:27:43.296Z,99294.72
2017-06-30T17:30:12.756Z,99298.64
2017-06-30T17:32:42.568Z,99300.08
2017-06-30T17:35:11.638Z,99304.66
2017-06-30T17:37:41.439Z,99299.46
2017-06-30T17:40:11.312Z,99304.23
2017-06-30T17:42:40.382Z,99305.56
2017-06-30T17:45:09.494Z,99303.44
2017-06-30T17:47:38.529Z,99303.62
2017-06-30T17:50:07.608Z,99308.80
2017-06-30T17:52:36.660Z,99306.56
2017-06-30T17:55:05.762Z,99313.91
2017-06-30T17:57:34.952Z,99318.14
2017-06-30T18:00:04.016Z,99314.88
2017-06-30T18:02:33.876Z,99313.16
2017-06-30T18:05:02.993Z,99315.01
2017-06-30T18:07:32.015Z,99314.30
2017-06-30T18:10:01.081Z,99323.03
2017-06-30T18:12:30.160Z,99322.65
2017-06-30T18:14:59.256Z,99321.69
2017-06-30T18:17:28.313Z,99327.22
2017-06-30T18:19:58.141Z,99330.41
2017-06-30T18:22:27.184Z,99325.95
2017-06-30T18:24:56.277Z,99325.06
2017-06-30T18:27:25.315Z,99333.41
2017-06-30T18:29:55.337Z,99325.84
2017-06-30T18:32:25.173Z,99331.31
2017-06-30T18:34:54.225Z,99339.78
2017-06-30T18:37:24.075Z,99337.44
2017-06-30T18:39:53.162Z,99338.33
2017-06-30T18:42:22.992Z,99337.79
2017-06-30T18:44:52.047Z,99336.27
2017-06-30T18:47:21.855Z,99341.29
2017-06-30T18:49:50.935Z,99339.70
2017-06-30T18:52:20.032Z,99346.03
2017-06-30T18:54:49.087Z,99353.94
2017-06-30T18:57:18.177Z,99363.61
2017-06-30T18:59:47.255Z,99367.05
2017-06-30T19:02:16.291Z,99384.85
2017-06-30T19:04:45.701Z,99387.47
2017-06-30T19:07:14.796Z,99385.64
2017-06-30T19:09:43.840Z,99399.14
2017-06-30T19:12:12.978Z,99389.38
2017-06-30T19:14:42.057Z,99394.28
2017-06-30T19:17:11.127Z,99388.42
2017-06-30T19:19:41.038Z,99394.95
2017-06-30T19:22:10.155Z,99411.53
2017-06-30T19:24:39.986Z,99396.59
2017-06-30T19:27:09.097Z,99405.09
2017-06-30T19:29:38.172Z,99405.50
2017-06-30T19:32:07.243Z,99415.14
2017-06-30T19:34:37.085Z,99423.41
2017-06-30T19:37:06.149Z,99424.17
2017-06-30T19:39:35.236Z,99419.25
2017-06-30T19:42:05.210Z,99420.05
2017-06-30T19:44:34.272Z,99424.36
2017-06-30T19:47:03.382Z,99431.63
2017-06-30T19:49:32.453Z,99427.47
2017-06-30T19:52:01.506Z,99424.69
2017-06-30T19:54:30.881Z,99424.31
2017-06-30T19:57:00.145Z,99432.94
2017-06-30T19:59:29.208Z,99429.59
2017-06-30T20:01:59.036Z,99431.76
2017-06-30T20:04:28.104Z,99431.56
2017-06-30T20:06:57.173Z,99436.67
2017-06-30T20:09:26.264Z,99438.05
2017-06-30T20:11:55.332Z,99432.95
2017-06-30T20:14:24.407Z,99432.19
2017-06-30T20:16:54.274Z,99430.59
2017-06-30T20:19:23.335Z,99431.61
2017-06-30T20:21:52.424Z,99427.27
2017-06-30T20:24:21.492Z,99432.20
2017-06-30T20:26:50.580Z,99425.72
2017-06-30T20:29:19.633Z,99428.05
2017-06-30T20:31:48.724Z,99431.20
2017-06-30T20:34:17.967Z,99425.53
2017-06-30T20:36:47.036Z,99423.55
2017-06-30T20:39:16.732Z,99426.70
2017-06-30T20:41:45.787Z,99434.77
2017-06-30T20:44:16.032Z,99429.47
2017-06-30T20:46:45.274Z,99427.50
2017-06-30T20:49:14.329Z,99425.53
2017-06-30T20:51:43.413Z,99428.86
2017-06-30T20:54:12.491Z,99424.74
2017-06-30T20:56:41.574Z,99427.48
2017-06-30T20:59:10.665Z,99432.62
2017-06-30T21:01:39.765Z,99432.03
2017-06-30T21:04:08.862Z,99433.78
2017-06-30T21:06:37.936Z,99428.28
2017-06-30T21:09:07.032Z,99423.97
2017-06-30T21:11:36.110Z,99429.47
2017-06-30T21:14:05.170Z,99425.35
2017-06-30T21:16:34.241Z,99422.98
2017-06-30T21:19:03.316Z,99424.76
2017-06-30T21:21:32.365Z,99423.77
2017-06-30T21:24:01.496Z,99431.84
2017-06-30T21:26:30.580Z,99422.79
2017-06-30T21:28:59.664Z,99426.72
2017-06-30T21:31:28.745Z,99421.81
2017-06-30T21:33:58.766Z,99422.81
2017-06-30T21:36:27.823Z,99419.84
2017-06-30T21:38:56.904Z,99424.78
2017-06-30T21:41:25.988Z,99432.05
2017-06-30T21:43:55.047Z,99433.41
2017-06-30T21:46:24.109Z,99432.22
2017-06-30T21:48:53.980Z,99439.70
2017-06-30T21:51:23.052Z,99448.35
2017-06-30T21:53:52.221Z,99445.20
2017-06-30T21:56:22.049Z,99445.20
2017-06-30T21:58:51.142Z,99440.68
2017-06-30T22:01:21.067Z,99440.89
2017-06-30T22:03:50.185Z,99437.73
2017-06-30T22:06:19.272Z,99440.70
2017-06-30T22:08:48.351Z,99446.20
2017-06-30T22:11:17.440Z,99444.83
2017-06-30T22:13:46.515Z,99447.73
2017-06-30T22:16:15.583Z,99443.03
2017-06-30T22:18:44.654Z,99448.73
2017-06-30T22:21:13.716Z,99455.22
2017-06-30T22:23:42.767Z,99456.77
2017-06-30T22:26:11.911Z,99465.79
2017-06-30T22:28:40.955Z,99460.86
2017-06-30T22:31:10.041Z,99459.45
2017-06-30T22:33:39.095Z,99463.16
2017-06-30T22:36:08.198Z,99453.74
2017-06-30T22:38:38.023Z,99454.72
2017-06-30T22:41:07.411Z,99453.33
2017-06-30T22:43:36.501Z,99448.45
2017-06-30T22:46:05.588Z,99448.02
2017-06-30T22:48:35.463Z,99443.12
2017-06-30T22:51:04.546Z,99435.46
2017-06-30T22:53:33.665Z,99445.67
2017-06-30T22:56:02.739Z,99444.50
2017-06-30T22:58:31.820Z,99442.53
2017-06-30T23:01:00.917Z,99443.13
2017-06-30T23:03:29.984Z,99439.58
2017-06-30T23:05:59.105Z,99438.83
2017-06-30T23:08:28.194Z,99441.16
2017-06-30T23:10:57.268Z,99435.68
2017-06-30T23:13:26.384Z,99440.95
2017-06-30T23:15:55.447Z,99441.16
2017-06-30T23:18:24.526Z,99438.02
2017-06-30T23:20:54.156Z,99444.30
2017-06-30T23:23:23.994Z,99446.46
2017-06-30T23:25:53.062Z,99444.48
2017-06-30T23:28:22.150Z,99442.73
2017-06-30T23:30:51.251Z,99448.39
2017-06-30T23:33:20.316Z,99444.27
2017-06-30T23:35:49.381Z,99443.52
2017-06-30T23:38:18.473Z,99445.48
2017-06-30T23:40:47.533Z,99447.05
2017-06-30T23:43:17.380Z,99449.59
2017-06-30T23:45:46.449Z,99444.50
2017-06-30T23:48:15.536Z,99442.11
2017-06-30T23:50:44.575Z,99449.77
2017-06-30T23:53:13.680Z,99441.92
2017-06-30T23:55:42.779Z,99446.63
2017-06-30T23:58:11.858Z,99441.33
